Hauptseite
METAR-TAF:

METAR-TAF

Flughäfen :

Châteaudun, Frankreich

Militärflugplatz Châteaudun

Breite: 48-03N, Länge: 001-23E, Höhe: 134 m

Beobachtung

Neuester Wetterbericht von vor 11 Minuten, um 09:00 UTC
Wind 4 kt aus unterschiedlichen Richtungen
Temperatur 15°C
Luftfeuchtigkeit 72%
Luftdruck 1020 hPa
Sichtweite 10 km oder mehr
Geschlossene Wolkendecke in der Höhe von 3700 ft

METAR: LFOC 230900Z AUTO VRB04KT 9999 OVC037 15/10 Q1020 NOSIG

Zeit: 11:11 (09:11 UTC)

Prognose

Neuester Wetterbericht von vor 1 Stunde und 11 Minuten, um 08:00 UTC
Gültige Prognose vom 23 um 09 UTC bis 24 um 09 UTC
Wind 12 kt aus West/Nordwest
Sichtweite 10 km oder mehr
Durchbrochene Bewölkung in der Höhe von 3500 ft
Übergehend zu
vom 23 um 21 UTC bis 23 um 23 UTC
Wind 2 kt aus unterschiedlichen Richtungen

TAF: LFOC 230800Z 2309/2409 29012KT 9999 BKN035 BECMG 2321/2323 VRB02KT

Wetterbeobachtungen und Prognosen von mehr als 4000 Flughäfen (METAR und TAF Bericht).

Die verfügbaren Stationen werden durch gelbe und rote Markierungen auf der Karte dargestellt.

Führen Sie die Maus auf sie, um den Namen der Station zu sehen.

Darauf klicken, um die Beobachtung von Wetterbeobachtungen und Prognosen zu sehen.

Um die Karte zu ändern : klicken Sie auf den grünen Tasten mit einem schwarzen Kreuz Zum Vergrößern, auf den grünen Button mit einem Gedankenstrich zu verkleinern, oder auf die grünen Pfeile für benachbarte Karten.


METAR-TAF: